sensor_id;sensor_type;location;lat;lon;timestamp;P1;durP1;ratioP1;P2;durP2;ratioP2
2850;SDS011;1433;49.976;8.342;2024-01-11T00:01:18;28.07;;;14.07;;
2850;SDS011;1433;49.976;8.342;2024-01-11T00:03:44;22.57;;;10.87;;
2850;SDS011;1433;49.976;8.342;2024-01-11T00:06:10;31.20;;;15.93;;
2850;SDS011;1433;49.976;8.342;2024-01-11T00:08:36;23.83;;;14.77;;
2850;SDS011;1433;49.976;8.342;2024-01-11T00:11:02;22.00;;;13.70;;
2850;SDS011;1433;49.976;8.342;2024-01-11T00:13:29;20.30;;;12.47;;
2850;SDS011;1433;49.976;8.342;2024-01-11T00:15:55;25.33;;;14.30;;
2850;SDS011;1433;49.976;8.342;2024-01-11T00:18:21;22.07;;;11.60;;
2850;SDS011;1433;49.976;8.342;2024-01-11T00:20:47;20.53;;;13.33;;
2850;SDS011;1433;49.976;8.342;2024-01-11T00:23:14;18.43;;;12.60;;
2850;SDS011;1433;49.976;8.342;2024-01-11T00:25:40;23.30;;;12.60;;
2850;SDS011;1433;49.976;8.342;2024-01-11T00:28:06;27.13;;;15.77;;
2850;SDS011;1433;49.976;8.342;2024-01-11T00:30:32;21.33;;;13.63;;
2850;SDS011;1433;49.976;8.342;2024-01-11T00:32:58;23.83;;;12.30;;
2850;SDS011;1433;49.976;8.342;2024-01-11T00:35:24;22.60;;;14.73;;
2850;SDS011;1433;49.976;8.342;2024-01-11T00:37:51;20.10;;;11.57;;
2850;SDS011;1433;49.976;8.342;2024-01-11T00:40:17;16.57;;;11.93;;
2850;SDS011;1433;49.976;8.342;2024-01-11T00:42:43;23.73;;;13.93;;
2850;SDS011;1433;49.976;8.342;2024-01-11T00:45:09;23.93;;;15.50;;
2850;SDS011;1433;49.976;8.342;2024-01-11T00:47:35;18.80;;;12.70;;
2850;SDS011;1433;49.976;8.342;2024-01-11T00:50:02;25.97;;;14.40;;
2850;SDS011;1433;49.976;8.342;2024-01-11T00:52:28;19.70;;;13.63;;
2850;SDS011;1433;49.976;8.342;2024-01-11T00:54:54;26.27;;;14.30;;
2850;SDS011;1433;49.976;8.342;2024-01-11T00:57:20;32.73;;;16.50;;
2850;SDS011;1433;49.976;8.342;2024-01-11T00:59:46;24.90;;;15.10;;
2850;SDS011;1433;49.976;8.342;2024-01-11T01:02:12;37.67;;;13.23;;
2850;SDS011;1433;49.976;8.342;2024-01-11T01:04:38;25.43;;;13.27;;
2850;SDS011;1433;49.976;8.342;2024-01-11T01:07:05;25.57;;;13.97;;
2850;SDS011;1433;49.976;8.342;2024-01-11T01:09:31;24.73;;;14.97;;
2850;SDS011;1433;49.976;8.342;2024-01-11T01:11:57;24.40;;;14.10;;
2850;SDS011;1433;49.976;8.342;2024-01-11T01:14:23;24.50;;;13.40;;
2850;SDS011;1433;49.976;8.342;2024-01-11T01:16:50;27.17;;;14.53;;
2850;SDS011;1433;49.976;8.342;2024-01-11T01:19:16;31.43;;;14.67;;
2850;SDS011;1433;49.976;8.342;2024-01-11T01:21:42;29.40;;;14.03;;
2850;SDS011;1433;49.976;8.342;2024-01-11T01:24:08;26.33;;;14.73;;
2850;SDS011;1433;49.976;8.342;2024-01-11T01:26:35;21.10;;;15.87;;
2850;SDS011;1433;49.976;8.342;2024-01-11T01:29:01;23.23;;;14.17;;
2850;SDS011;1433;49.976;8.342;2024-01-11T01:31:27;34.83;;;15.43;;
2850;SDS011;1433;49.976;8.342;2024-01-11T01:33:54;22.27;;;13.70;;
2850;SDS011;1433;49.976;8.342;2024-01-11T01:36:21;22.17;;;14.70;;
2850;SDS011;1433;49.976;8.342;2024-01-11T01:38:47;23.37;;;14.63;;
2850;SDS011;1433;49.976;8.342;2024-01-11T01:41:14;32.00;;;12.80;;
2850;SDS011;1433;49.976;8.342;2024-01-11T01:43:40;25.07;;;16.00;;
2850;SDS011;1433;49.976;8.342;2024-01-11T01:46:06;27.27;;;13.17;;
2850;SDS011;1433;49.976;8.342;2024-01-11T01:48:33;25.03;;;13.13;;
2850;SDS011;1433;49.976;8.342;2024-01-11T01:50:59;22.77;;;12.63;;
2850;SDS011;1433;49.976;8.342;2024-01-11T01:53:26;27.93;;;14.37;;
2850;SDS011;1433;49.976;8.342;2024-01-11T01:55:54;31.00;;;14.67;;
2850;SDS011;1433;49.976;8.342;2024-01-11T01:58:20;22.53;;;14.43;;
2850;SDS011;1433;49.976;8.342;2024-01-11T02:00:48;24.43;;;12.67;;
2850;SDS011;1433;49.976;8.342;2024-01-11T02:03:16;30.57;;;14.27;;
2850;SDS011;1433;49.976;8.342;2024-01-11T02:05:43;27.23;;;14.60;;
2850;SDS011;1433;49.976;8.342;2024-01-11T02:08:12;30.43;;;13.87;;
2850;SDS011;1433;49.976;8.342;2024-01-11T02:10:40;23.27;;;14.17;;
2850;SDS011;1433;49.976;8.342;2024-01-11T02:13:08;32.00;;;16.97;;
2850;SDS011;1433;49.976;8.342;2024-01-11T02:15:34;22.80;;;15.40;;
2850;SDS011;1433;49.976;8.342;2024-01-11T02:18:01;22.70;;;15.00;;
2850;SDS011;1433;49.976;8.342;2024-01-11T02:20:27;31.60;;;13.53;;
2850;SDS011;1433;49.976;8.342;2024-01-11T02:22:54;25.60;;;13.33;;
2850;SDS011;1433;49.976;8.342;2024-01-11T02:25:23;22.20;;;14.10;;
2850;SDS011;1433;49.976;8.342;2024-01-11T02:27:49;29.07;;;15.67;;
2850;SDS011;1433;49.976;8.342;2024-01-11T02:30:16;42.50;;;18.57;;
2850;SDS011;1433;49.976;8.342;2024-01-11T02:32:49;25.97;;;15.47;;
2850;SDS011;1433;49.976;8.342;2024-01-11T02:35:16;30.37;;;14.33;;
2850;SDS011;1433;49.976;8.342;2024-01-11T02:37:45;22.20;;;13.53;;
2850;SDS011;1433;49.976;8.342;2024-01-11T02:40:12;17.80;;;11.77;;
2850;SDS011;1433;49.976;8.342;2024-01-11T02:42:39;32.20;;;15.43;;
2850;SDS011;1433;49.976;8.342;2024-01-11T02:45:06;29.23;;;17.70;;
2850;SDS011;1433;49.976;8.342;2024-01-11T02:47:33;19.13;;;13.10;;
2850;SDS011;1433;49.976;8.342;2024-01-11T02:49:59;29.50;;;17.97;;
2850;SDS011;1433;49.976;8.342;2024-01-11T02:52:25;24.77;;;12.10;;
2850;SDS011;1433;49.976;8.342;2024-01-11T02:54:51;19.33;;;13.33;;
2850;SDS011;1433;49.976;8.342;2024-01-11T02:57:17;27.07;;;13.07;;
2850;SDS011;1433;49.976;8.342;2024-01-11T02:59:44;29.17;;;15.23;;
2850;SDS011;1433;49.976;8.342;2024-01-11T03:02:17;19.43;;;14.13;;
2850;SDS011;1433;49.976;8.342;2024-01-11T03:04:51;25.60;;;15.37;;
2850;SDS011;1433;49.976;8.342;2024-01-11T03:12:53;24.93;;;15.73;;
2850;SDS011;1433;49.976;8.342;2024-01-11T03:15:20;23.53;;;13.17;;
2850;SDS011;1433;49.976;8.342;2024-01-11T03:17:46;21.90;;;13.40;;
2850;SDS011;1433;49.976;8.342;2024-01-11T03:20:12;29.17;;;15.30;;
2850;SDS011;1433;49.976;8.342;2024-01-11T03:22:44;20.67;;;14.37;;
2850;SDS011;1433;49.976;8.342;2024-01-11T03:25:11;25.73;;;12.80;;
2850;SDS011;1433;49.976;8.342;2024-01-11T03:27:39;29.30;;;16.37;;
2850;SDS011;1433;49.976;8.342;2024-01-11T03:30:05;30.20;;;15.00;;
2850;SDS011;1433;49.976;8.342;2024-01-11T03:32:32;25.43;;;14.13;;
2850;SDS011;1433;49.976;8.342;2024-01-11T03:34:59;20.20;;;12.50;;
2850;SDS011;1433;49.976;8.342;2024-01-11T03:37:25;26.53;;;13.10;;
2850;SDS011;1433;49.976;8.342;2024-01-11T03:39:51;26.00;;;13.47;;
2850;SDS011;1433;49.976;8.342;2024-01-11T03:42:18;39.73;;;13.93;;
2850;SDS011;1433;49.976;8.342;2024-01-11T03:44:44;29.20;;;15.20;;
2850;SDS011;1433;49.976;8.342;2024-01-11T03:47:10;26.50;;;13.93;;
2850;SDS011;1433;49.976;8.342;2024-01-11T03:49:37;34.23;;;14.40;;
2850;SDS011;1433;49.976;8.342;2024-01-11T03:52:04;30.80;;;16.47;;
2850;SDS011;1433;49.976;8.342;2024-01-11T03:54:32;19.07;;;13.00;;
2850;SDS011;1433;49.976;8.342;2024-01-11T03:56:58;26.67;;;13.43;;
2850;SDS011;1433;49.976;8.342;2024-01-11T03:59:25;25.33;;;13.20;;
2850;SDS011;1433;49.976;8.342;2024-01-11T04:01:51;25.00;;;14.57;;
2850;SDS011;1433;49.976;8.342;2024-01-11T04:04:21;17.30;;;12.50;;
2850;SDS011;1433;49.976;8.342;2024-01-11T04:06:59;32.80;;;14.27;;
2850;SDS011;1433;49.976;8.342;2024-01-11T04:09:26;18.67;;;13.03;;
2850;SDS011;1433;49.976;8.342;2024-01-11T04:11:52;22.97;;;13.10;;
2850;SDS011;1433;49.976;8.342;2024-01-11T04:14:18;33.60;;;14.60;;
2850;SDS011;1433;49.976;8.342;2024-01-11T04:16:45;17.70;;;12.47;;
2850;SDS011;1433;49.976;8.342;2024-01-11T04:21:53;22.70;;;9.50;;
2850;SDS011;1433;49.976;8.342;2024-01-11T04:24:23;23.67;;;13.00;;
2850;SDS011;1433;49.976;8.342;2024-01-11T04:26:49;19.33;;;11.33;;
2850;SDS011;1433;49.976;8.342;2024-01-11T04:29:20;21.83;;;12.03;;
2850;SDS011;1433;49.976;8.342;2024-01-11T04:31:52;21.70;;;12.53;;
2850;SDS011;1433;49.976;8.342;2024-01-11T04:34:18;21.27;;;12.90;;
2850;SDS011;1433;49.976;8.342;2024-01-11T04:36:45;18.10;;;11.57;;
2850;SDS011;1433;49.976;8.342;2024-01-11T04:39:11;23.40;;;11.90;;
2850;SDS011;1433;49.976;8.342;2024-01-11T04:41:39;22.53;;;11.70;;
2850;SDS011;1433;49.976;8.342;2024-01-11T04:44:05;11.93;;;10.80;;
2850;SDS011;1433;49.976;8.342;2024-01-11T04:46:34;27.17;;;14.17;;
2850;SDS011;1433;49.976;8.342;2024-01-11T04:49:05;24.93;;;15.47;;
2850;SDS011;1433;49.976;8.342;2024-01-11T04:51:37;17.00;;;10.67;;
2850;SDS011;1433;49.976;8.342;2024-01-11T04:54:16;22.40;;;11.17;;
2850;SDS011;1433;49.976;8.342;2024-01-11T04:56:41;26.13;;;11.40;;
2850;SDS011;1433;49.976;8.342;2024-01-11T04:59:10;17.73;;;12.20;;
2850;SDS011;1433;49.976;8.342;2024-01-11T05:01:37;27.23;;;13.40;;
2850;SDS011;1433;49.976;8.342;2024-01-11T05:04:03;23.13;;;13.30;;
2850;SDS011;1433;49.976;8.342;2024-01-11T05:06:30;26.80;;;13.13;;
2850;SDS011;1433;49.976;8.342;2024-01-11T05:08:56;20.43;;;11.13;;
2850;SDS011;1433;49.976;8.342;2024-01-11T05:11:22;24.23;;;11.33;;
2850;SDS011;1433;49.976;8.342;2024-01-11T05:13:52;23.13;;;12.33;;
2850;SDS011;1433;49.976;8.342;2024-01-11T05:16:25;18.47;;;8.90;;
2850;SDS011;1433;49.976;8.342;2024-01-11T05:18:55;25.93;;;12.40;;
2850;SDS011;1433;49.976;8.342;2024-01-11T05:21:25;26.90;;;13.27;;
2850;SDS011;1433;49.976;8.342;2024-01-11T05:23:51;26.80;;;10.40;;
2850;SDS011;1433;49.976;8.342;2024-01-11T05:26:18;23.50;;;11.60;;
2850;SDS011;1433;49.976;8.342;2024-01-11T05:28:46;22.60;;;12.70;;
2850;SDS011;1433;49.976;8.342;2024-01-11T05:31:13;19.70;;;11.90;;
2850;SDS011;1433;49.976;8.342;2024-01-11T05:33:41;21.97;;;12.80;;
2850;SDS011;1433;49.976;8.342;2024-01-11T05:36:08;25.20;;;15.10;;
2850;SDS011;1433;49.976;8.342;2024-01-11T05:38:37;28.30;;;13.23;;
2850;SDS011;1433;49.976;8.342;2024-01-11T05:41:04;19.73;;;12.47;;
2850;SDS011;1433;49.976;8.342;2024-01-11T05:43:30;30.23;;;14.17;;
2850;SDS011;1433;49.976;8.342;2024-01-11T05:45:56;30.53;;;14.50;;
2850;SDS011;1433;49.976;8.342;2024-01-11T05:48:23;24.63;;;12.93;;
2850;SDS011;1433;49.976;8.342;2024-01-11T05:50:50;40.30;;;17.10;;
2850;SDS011;1433;49.976;8.342;2024-01-11T05:53:16;27.40;;;18.03;;
2850;SDS011;1433;49.976;8.342;2024-01-11T05:55:44;35.97;;;19.20;;
2850;SDS011;1433;49.976;8.342;2024-01-11T05:58:10;27.90;;;16.70;;
2850;SDS011;1433;49.976;8.342;2024-01-11T06:00:36;24.83;;;14.33;;
2850;SDS011;1433;49.976;8.342;2024-01-11T06:03:03;27.53;;;15.30;;
2850;SDS011;1433;49.976;8.342;2024-01-11T06:05:30;26.57;;;15.60;;
2850;SDS011;1433;49.976;8.342;2024-01-11T06:07:57;25.67;;;15.37;;
2850;SDS011;1433;49.976;8.342;2024-01-11T06:10:23;27.70;;;17.20;;
2850;SDS011;1433;49.976;8.342;2024-01-11T06:12:50;26.60;;;16.80;;
2850;SDS011;1433;49.976;8.342;2024-01-11T06:15:20;22.53;;;13.57;;
2850;SDS011;1433;49.976;8.342;2024-01-11T06:17:45;16.80;;;13.27;;
2850;SDS011;1433;49.976;8.342;2024-01-11T06:20:12;24.57;;;14.10;;
2850;SDS011;1433;49.976;8.342;2024-01-11T06:22:38;27.03;;;16.50;;
2850;SDS011;1433;49.976;8.342;2024-01-11T06:25:05;21.30;;;13.90;;
2850;SDS011;1433;49.976;8.342;2024-01-11T06:27:32;29.90;;;15.23;;
2850;SDS011;1433;49.976;8.342;2024-01-11T06:29:58;20.93;;;14.70;;
2850;SDS011;1433;49.976;8.342;2024-01-11T06:32:25;27.83;;;14.57;;
2850;SDS011;1433;49.976;8.342;2024-01-11T06:34:51;16.23;;;12.70;;
2850;SDS011;1433;49.976;8.342;2024-01-11T06:37:17;22.60;;;13.67;;
2850;SDS011;1433;49.976;8.342;2024-01-11T06:39:43;28.70;;;15.83;;
2850;SDS011;1433;49.976;8.342;2024-01-11T06:42:10;16.30;;;12.67;;
2850;SDS011;1433;49.976;8.342;2024-01-11T06:44:36;29.23;;;13.00;;
2850;SDS011;1433;49.976;8.342;2024-01-11T06:47:02;31.60;;;14.27;;
2850;SDS011;1433;49.976;8.342;2024-01-11T06:49:31;21.37;;;11.23;;
2850;SDS011;1433;49.976;8.342;2024-01-11T06:51:58;29.23;;;12.90;;
2850;SDS011;1433;49.976;8.342;2024-01-11T06:54:27;21.47;;;12.13;;
2850;SDS011;1433;49.976;8.342;2024-01-11T06:56:56;18.60;;;10.67;;
2850;SDS011;1433;49.976;8.342;2024-01-11T06:59:22;24.13;;;11.97;;
2850;SDS011;1433;49.976;8.342;2024-01-11T07:01:49;17.80;;;12.97;;
2850;SDS011;1433;49.976;8.342;2024-01-11T07:04:15;19.30;;;11.33;;
2850;SDS011;1433;49.976;8.342;2024-01-11T07:06:42;19.60;;;12.73;;
2850;SDS011;1433;49.976;8.342;2024-01-11T07:09:08;26.30;;;13.50;;
2850;SDS011;1433;49.976;8.342;2024-01-11T07:11:36;24.77;;;16.30;;
2850;SDS011;1433;49.976;8.342;2024-01-11T07:14:03;29.23;;;14.17;;
2850;SDS011;1433;49.976;8.342;2024-01-11T07:16:30;25.67;;;14.93;;
2850;SDS011;1433;49.976;8.342;2024-01-11T07:18:56;23.40;;;14.33;;
2850;SDS011;1433;49.976;8.342;2024-01-11T07:21:23;20.70;;;13.33;;
2850;SDS011;1433;49.976;8.342;2024-01-11T07:23:57;20.67;;;11.60;;
2850;SDS011;1433;49.976;8.342;2024-01-11T07:26:24;22.53;;;13.53;;
2850;SDS011;1433;49.976;8.342;2024-01-11T07:28:51;22.27;;;13.37;;
2850;SDS011;1433;49.976;8.342;2024-01-11T07:31:20;23.37;;;12.00;;
2850;SDS011;1433;49.976;8.342;2024-01-11T07:33:47;21.83;;;12.20;;
2850;SDS011;1433;49.976;8.342;2024-01-11T07:36:13;17.73;;;13.03;;
2850;SDS011;1433;49.976;8.342;2024-01-11T07:38:39;30.07;;;14.57;;
2850;SDS011;1433;49.976;8.342;2024-01-11T07:41:05;26.70;;;13.13;;
2850;SDS011;1433;49.976;8.342;2024-01-11T07:43:32;22.03;;;13.67;;
2850;SDS011;1433;49.976;8.342;2024-01-11T07:46:01;34.70;;;13.20;;
2850;SDS011;1433;49.976;8.342;2024-01-11T07:48:29;30.77;;;15.00;;
2850;SDS011;1433;49.976;8.342;2024-01-11T07:50:55;21.90;;;12.70;;
2850;SDS011;1433;49.976;8.342;2024-01-11T07:53:22;27.80;;;13.30;;
2850;SDS011;1433;49.976;8.342;2024-01-11T07:55:49;22.33;;;14.87;;
2850;SDS011;1433;49.976;8.342;2024-01-11T07:58:15;39.03;;;15.60;;
2850;SDS011;1433;49.976;8.342;2024-01-11T08:00:41;31.73;;;16.80;;
2850;SDS011;1433;49.976;8.342;2024-01-11T08:03:08;26.40;;;16.53;;
2850;SDS011;1433;49.976;8.342;2024-01-11T08:05:34;26.27;;;13.80;;
2850;SDS011;1433;49.976;8.342;2024-01-11T08:08:00;26.73;;;14.13;;
2850;SDS011;1433;49.976;8.342;2024-01-11T08:10:28;36.47;;;17.00;;
2850;SDS011;1433;49.976;8.342;2024-01-11T08:12:58;31.57;;;16.73;;
2850;SDS011;1433;49.976;8.342;2024-01-11T08:15:26;33.47;;;16.00;;
2850;SDS011;1433;49.976;8.342;2024-01-11T08:17:52;35.60;;;19.83;;
2850;SDS011;1433;49.976;8.342;2024-01-11T08:20:19;23.63;;;14.40;;
2850;SDS011;1433;49.976;8.342;2024-01-11T08:22:45;28.50;;;15.20;;
2850;SDS011;1433;49.976;8.342;2024-01-11T08:25:14;34.63;;;16.53;;
2850;SDS011;1433;49.976;8.342;2024-01-11T08:27:40;33.30;;;17.97;;
2850;SDS011;1433;49.976;8.342;2024-01-11T08:30:07;39.73;;;17.20;;
2850;SDS011;1433;49.976;8.342;2024-01-11T08:32:34;35.67;;;16.20;;
2850;SDS011;1433;49.976;8.342;2024-01-11T08:35:05;36.73;;;18.63;;
2850;SDS011;1433;49.976;8.342;2024-01-11T08:37:32;38.87;;;17.83;;
2850;SDS011;1433;49.976;8.342;2024-01-11T08:39:59;32.27;;;17.80;;
2850;SDS011;1433;49.976;8.342;2024-01-11T08:42:25;31.33;;;17.70;;
2850;SDS011;1433;49.976;8.342;2024-01-11T08:44:51;36.20;;;16.97;;
2850;SDS011;1433;49.976;8.342;2024-01-11T08:47:18;38.67;;;17.77;;
2850;SDS011;1433;49.976;8.342;2024-01-11T08:49:44;34.50;;;17.70;;
2850;SDS011;1433;49.976;8.342;2024-01-11T08:52:10;35.47;;;18.83;;
2850;SDS011;1433;49.976;8.342;2024-01-11T08:54:36;37.17;;;16.17;;
2850;SDS011;1433;49.976;8.342;2024-01-11T08:57:03;31.20;;;18.97;;
2850;SDS011;1433;49.976;8.342;2024-01-11T08:59:30;39.03;;;18.40;;
2850;SDS011;1433;49.976;8.342;2024-01-11T09:01:56;33.87;;;19.23;;
2850;SDS011;1433;49.976;8.342;2024-01-11T09:04:22;30.23;;;18.67;;
2850;SDS011;1433;49.976;8.342;2024-01-11T09:06:48;34.63;;;17.30;;
2850;SDS011;1433;49.976;8.342;2024-01-11T09:09:14;33.00;;;20.97;;
2850;SDS011;1433;49.976;8.342;2024-01-11T09:11:41;39.30;;;21.23;;
2850;SDS011;1433;49.976;8.342;2024-01-11T09:14:07;28.23;;;16.63;;
2850;SDS011;1433;49.976;8.342;2024-01-11T09:16:35;38.97;;;19.60;;
2850;SDS011;1433;49.976;8.342;2024-01-11T09:19:02;37.83;;;19.33;;
2850;SDS011;1433;49.976;8.342;2024-01-11T09:21:28;39.17;;;19.97;;
2850;SDS011;1433;49.976;8.342;2024-01-11T09:23:54;39.97;;;18.70;;
2850;SDS011;1433;49.976;8.342;2024-01-11T09:26:20;40.87;;;18.67;;
2850;SDS011;1433;49.976;8.342;2024-01-11T09:28:48;44.33;;;20.63;;
2850;SDS011;1433;49.976;8.342;2024-01-11T09:31:14;39.43;;;18.87;;
2850;SDS011;1433;49.976;8.342;2024-01-11T09:33:41;29.53;;;17.70;;
2850;SDS011;1433;49.976;8.342;2024-01-11T09:36:08;37.80;;;20.57;;
2850;SDS011;1433;49.976;8.342;2024-01-11T09:38:35;35.70;;;24.67;;
2850;SDS011;1433;49.976;8.342;2024-01-11T09:41:08;35.73;;;20.07;;
2850;SDS011;1433;49.976;8.342;2024-01-11T09:43:36;37.07;;;19.20;;
2850;SDS011;1433;49.976;8.342;2024-01-11T09:46:03;32.90;;;18.17;;
2850;SDS011;1433;49.976;8.342;2024-01-11T09:48:34;29.70;;;17.87;;
2850;SDS011;1433;49.976;8.342;2024-01-11T09:51:05;35.27;;;20.97;;
2850;SDS011;1433;49.976;8.342;2024-01-11T09:53:34;34.20;;;17.00;;
2850;SDS011;1433;49.976;8.342;2024-01-11T09:55:58;37.30;;;21.37;;
2850;SDS011;1433;49.976;8.342;2024-01-11T09:58:25;36.87;;;22.03;;
2850;SDS011;1433;49.976;8.342;2024-01-11T10:00:53;33.50;;;21.20;;
2850;SDS011;1433;49.976;8.342;2024-01-11T10:03:24;36.07;;;21.17;;
2850;SDS011;1433;49.976;8.342;2024-01-11T10:05:50;33.33;;;17.80;;
2850;SDS011;1433;49.976;8.342;2024-01-11T10:08:21;34.10;;;19.87;;
2850;SDS011;1433;49.976;8.342;2024-01-11T10:10:47;44.70;;;21.07;;
2850;SDS011;1433;49.976;8.342;2024-01-11T10:13:14;38.77;;;20.27;;
2850;SDS011;1433;49.976;8.342;2024-01-11T10:15:42;42.70;;;23.40;;
2850;SDS011;1433;49.976;8.342;2024-01-11T10:18:09;34.03;;;21.87;;
2850;SDS011;1433;49.976;8.342;2024-01-11T10:20:36;38.13;;;20.20;;
2850;SDS011;1433;49.976;8.342;2024-01-11T10:23:03;44.67;;;24.20;;
2850;SDS011;1433;49.976;8.342;2024-01-11T10:25:29;41.70;;;21.20;;
2850;SDS011;1433;49.976;8.342;2024-01-11T10:27:56;35.57;;;20.70;;
2850;SDS011;1433;49.976;8.342;2024-01-11T10:30:24;39.13;;;20.30;;
2850;SDS011;1433;49.976;8.342;2024-01-11T10:32:52;43.07;;;20.80;;
2850;SDS011;1433;49.976;8.342;2024-01-11T10:35:18;40.87;;;22.60;;
2850;SDS011;1433;49.976;8.342;2024-01-11T10:37:44;38.43;;;20.73;;
2850;SDS011;1433;49.976;8.342;2024-01-11T10:40:10;37.07;;;21.90;;
2850;SDS011;1433;49.976;8.342;2024-01-11T10:42:43;40.77;;;21.43;;
2850;SDS011;1433;49.976;8.342;2024-01-11T10:45:15;44.07;;;22.63;;
2850;SDS011;1433;49.976;8.342;2024-01-11T10:50:23;39.10;;;23.70;;
2850;SDS011;1433;49.976;8.342;2024-01-11T10:52:54;43.67;;;23.60;;
2850;SDS011;1433;49.976;8.342;2024-01-11T10:55:33;37.50;;;24.10;;
2850;SDS011;1433;49.976;8.342;2024-01-11T10:58:00;49.00;;;26.77;;
2850;SDS011;1433;49.976;8.342;2024-01-11T11:00:31;35.60;;;22.53;;
2850;SDS011;1433;49.976;8.342;2024-01-11T11:03:00;29.77;;;21.23;;
2850;SDS011;1433;49.976;8.342;2024-01-11T11:05:29;33.47;;;23.40;;
2850;SDS011;1433;49.976;8.342;2024-01-11T11:07:56;35.90;;;23.17;;
2850;SDS011;1433;49.976;8.342;2024-01-11T11:10:24;38.40;;;25.60;;
2850;SDS011;1433;49.976;8.342;2024-01-11T11:12:54;45.13;;;25.50;;
2850;SDS011;1433;49.976;8.342;2024-01-11T11:15:23;34.80;;;25.43;;
2850;SDS011;1433;49.976;8.342;2024-01-11T11:17:50;48.47;;;29.67;;
2850;SDS011;1433;49.976;8.342;2024-01-11T11:20:16;39.37;;;25.37;;
2850;SDS011;1433;49.976;8.342;2024-01-11T11:22:42;42.87;;;25.80;;
2850;SDS011;1433;49.976;8.342;2024-01-11T11:25:09;38.87;;;26.37;;
2850;SDS011;1433;49.976;8.342;2024-01-11T11:27:39;40.87;;;25.70;;
2850;SDS011;1433;49.976;8.342;2024-01-11T11:30:06;41.53;;;25.83;;
2850;SDS011;1433;49.976;8.342;2024-01-11T11:32:35;46.00;;;25.23;;
2850;SDS011;1433;49.976;8.342;2024-01-11T11:35:04;39.57;;;24.30;;
2850;SDS011;1433;49.976;8.342;2024-01-11T11:37:31;45.37;;;27.77;;
2850;SDS011;1433;49.976;8.342;2024-01-11T11:39:57;37.13;;;24.57;;
2850;SDS011;1433;49.976;8.342;2024-01-11T11:42:25;41.40;;;24.70;;
2850;SDS011;1433;49.976;8.342;2024-01-11T11:44:51;38.00;;;21.90;;
2850;SDS011;1433;49.976;8.342;2024-01-11T11:47:18;39.30;;;22.23;;
2850;SDS011;1433;49.976;8.342;2024-01-11T11:49:57;38.97;;;26.70;;
2850;SDS011;1433;49.976;8.342;2024-01-11T11:52:25;33.30;;;24.67;;
2850;SDS011;1433;49.976;8.342;2024-01-11T11:54:52;41.60;;;25.57;;
2850;SDS011;1433;49.976;8.342;2024-01-11T11:57:19;34.83;;;22.87;;
2850;SDS011;1433;49.976;8.342;2024-01-11T11:59:46;43.87;;;26.87;;
2850;SDS011;1433;49.976;8.342;2024-01-11T12:02:16;39.53;;;25.13;;
2850;SDS011;1433;49.976;8.342;2024-01-11T12:04:46;40.73;;;25.40;;
2850;SDS011;1433;49.976;8.342;2024-01-11T12:07:14;48.90;;;25.97;;
2850;SDS011;1433;49.976;8.342;2024-01-11T12:09:41;30.33;;;23.10;;
2850;SDS011;1433;49.976;8.342;2024-01-11T12:12:08;40.40;;;24.17;;
2850;SDS011;1433;49.976;8.342;2024-01-11T12:14:35;34.23;;;23.80;;
2850;SDS011;1433;49.976;8.342;2024-01-11T12:17:01;49.63;;;25.30;;
2850;SDS011;1433;49.976;8.342;2024-01-11T12:19:28;41.97;;;24.03;;
2850;SDS011;1433;49.976;8.342;2024-01-11T12:21:54;40.00;;;24.90;;
2850;SDS011;1433;49.976;8.342;2024-01-11T12:24:20;29.30;;;20.20;;
2850;SDS011;1433;49.976;8.342;2024-01-11T12:26:50;39.83;;;23.23;;
2850;SDS011;1433;49.976;8.342;2024-01-11T12:29:19;39.17;;;20.77;;
2850;SDS011;1433;49.976;8.342;2024-01-11T12:31:46;39.33;;;24.50;;
2850;SDS011;1433;49.976;8.342;2024-01-11T12:34:12;37.27;;;23.33;;
2850;SDS011;1433;49.976;8.342;2024-01-11T12:36:40;38.40;;;24.70;;
2850;SDS011;1433;49.976;8.342;2024-01-11T12:39:07;37.73;;;22.63;;
2850;SDS011;1433;49.976;8.342;2024-01-11T12:41:35;36.13;;;23.80;;
2850;SDS011;1433;49.976;8.342;2024-01-11T12:44:02;33.07;;;24.70;;
2850;SDS011;1433;49.976;8.342;2024-01-11T12:46:28;36.60;;;23.70;;
2850;SDS011;1433;49.976;8.342;2024-01-11T12:48:54;41.43;;;25.30;;
2850;SDS011;1433;49.976;8.342;2024-01-11T12:51:20;34.27;;;25.53;;
2850;SDS011;1433;49.976;8.342;2024-01-11T12:53:47;37.17;;;24.67;;
2850;SDS011;1433;49.976;8.342;2024-01-11T12:56:16;34.03;;;22.37;;
2850;SDS011;1433;49.976;8.342;2024-01-11T12:58:44;39.47;;;25.73;;
2850;SDS011;1433;49.976;8.342;2024-01-11T13:01:12;38.50;;;22.20;;
2850;SDS011;1433;49.976;8.342;2024-01-11T13:03:43;35.50;;;23.47;;
2850;SDS011;1433;49.976;8.342;2024-01-11T13:06:14;36.73;;;22.97;;
2850;SDS011;1433;49.976;8.342;2024-01-11T13:08:41;36.37;;;21.77;;
2850;SDS011;1433;49.976;8.342;2024-01-11T13:11:08;42.83;;;23.60;;
2850;SDS011;1433;49.976;8.342;2024-01-11T13:13:35;33.20;;;21.40;;
2850;SDS011;1433;49.976;8.342;2024-01-11T13:16:06;32.50;;;22.60;;
2850;SDS011;1433;49.976;8.342;2024-01-11T13:18:34;31.10;;;23.27;;
2850;SDS011;1433;49.976;8.342;2024-01-11T13:21:03;31.80;;;21.43;;
2850;SDS011;1433;49.976;8.342;2024-01-11T13:23:29;40.40;;;23.13;;
2850;SDS011;1433;49.976;8.342;2024-01-11T13:25:56;32.03;;;21.77;;
2850;SDS011;1433;49.976;8.342;2024-01-11T13:28:23;29.27;;;20.67;;
2850;SDS011;1433;49.976;8.342;2024-01-11T13:30:49;36.40;;;22.70;;
2850;SDS011;1433;49.976;8.342;2024-01-11T13:33:15;35.67;;;25.73;;
2850;SDS011;1433;49.976;8.342;2024-01-11T13:35:43;33.90;;;22.97;;
2850;SDS011;1433;49.976;8.342;2024-01-11T13:38:09;35.33;;;23.07;;
2850;SDS011;1433;49.976;8.342;2024-01-11T13:40:36;34.60;;;22.63;;
2850;SDS011;1433;49.976;8.342;2024-01-11T13:43:02;35.40;;;24.17;;
2850;SDS011;1433;49.976;8.342;2024-01-11T13:45:29;40.70;;;25.57;;
2850;SDS011;1433;49.976;8.342;2024-01-11T13:47:56;40.33;;;25.70;;
2850;SDS011;1433;49.976;8.342;2024-01-11T13:50:22;41.73;;;26.33;;
2850;SDS011;1433;49.976;8.342;2024-01-11T13:52:52;33.63;;;23.30;;
2850;SDS011;1433;49.976;8.342;2024-01-11T13:55:18;35.53;;;23.30;;
2850;SDS011;1433;49.976;8.342;2024-01-11T13:57:47;37.63;;;22.60;;
2850;SDS011;1433;49.976;8.342;2024-01-11T14:00:15;37.07;;;25.30;;
2850;SDS011;1433;49.976;8.342;2024-01-11T14:02:43;43.63;;;22.73;;
2850;SDS011;1433;49.976;8.342;2024-01-11T14:05:10;41.33;;;21.77;;
2850;SDS011;1433;49.976;8.342;2024-01-11T14:07:39;34.60;;;22.77;;
2850;SDS011;1433;49.976;8.342;2024-01-11T14:10:06;36.90;;;23.03;;
2850;SDS011;1433;49.976;8.342;2024-01-11T14:12:34;41.93;;;23.77;;
2850;SDS011;1433;49.976;8.342;2024-01-11T14:15:06;36.87;;;21.90;;
2850;SDS011;1433;49.976;8.342;2024-01-11T14:18:02;31.10;;;20.17;;
2850;SDS011;1433;49.976;8.342;2024-01-11T14:20:52;43.73;;;23.90;;
2850;SDS011;1433;49.976;8.342;2024-01-11T14:23:26;48.30;;;19.90;;
2850;SDS011;1433;49.976;8.342;2024-01-11T14:25:52;38.57;;;22.27;;
2850;SDS011;1433;49.976;8.342;2024-01-11T14:28:19;34.20;;;21.03;;
2850;SDS011;1433;49.976;8.342;2024-01-11T14:30:54;38.70;;;19.60;;
2850;SDS011;1433;49.976;8.342;2024-01-11T14:33:29;40.30;;;23.43;;
2850;SDS011;1433;49.976;8.342;2024-01-11T14:35:56;29.67;;;20.10;;
2850;SDS011;1433;49.976;8.342;2024-01-11T14:38:22;30.37;;;18.97;;
2850;SDS011;1433;49.976;8.342;2024-01-11T14:40:49;32.30;;;20.50;;
2850;SDS011;1433;49.976;8.342;2024-01-11T14:43:16;39.33;;;21.40;;
2850;SDS011;1433;49.976;8.342;2024-01-11T14:45:43;44.37;;;22.80;;
2850;SDS011;1433;49.976;8.342;2024-01-11T14:48:21;40.10;;;22.40;;
2850;SDS011;1433;49.976;8.342;2024-01-11T14:50:48;33.40;;;21.07;;
2850;SDS011;1433;49.976;8.342;2024-01-11T14:53:15;32.90;;;21.90;;
2850;SDS011;1433;49.976;8.342;2024-01-11T14:55:41;41.37;;;22.10;;
2850;SDS011;1433;49.976;8.342;2024-01-11T14:58:08;31.60;;;21.40;;
2850;SDS011;1433;49.976;8.342;2024-01-11T15:00:35;38.70;;;20.50;;